Time;durP1;ratioP1;P1;durP2;ratioP2;P2;SDS_P1;SDS_P2;PMS_P1;PMS_P2;Temp;Humidity;BMP_temperature;BMP_pressure;BME280_temperature;BME280_humidity;BME280_pressure;Samples;Min_cycle;Max_cycle;Signal;HPM_P1;HPM_P2
2021/03/20 00:02:31;;;;;;;7.97;3.50;;;;;;;-3.53;69.26;100436.73;251930;1109;115990;-63
2021/03/20 00:07:37;;;;;;;5.78;3.20;;;;;;;-3.51;68.38;100443.48;252211;1108;115042;-64
2021/03/20 00:12:42;;;;;;;12.03;4.87;;;;;;;-3.53;69.40;100440.17;252166;1108;115412;-62
2021/03/20 00:17:46;;;;;;;7.53;4.33;;;;;;;-3.55;70.59;100447.28;251476;1109;116915;-60
2021/03/20 00:22:50;;;;;;;12.58;3.95;;;;;;;-3.56;69.56;100442.20;251134;1108;115872;-63
2021/03/20 00:27:56;;;;;;;9.13;4.00;;;;;;;-3.63;71.23;100446.25;252431;1108;116165;-63
2021/03/20 00:32:59;;;;;;;18.87;9.68;;;;;;;-3.67;70.14;100437.89;251303;1109;115113;-63
2021/03/20 00:38:02;;;;;;;11.05;5.17;;;;;;;-3.72;70.94;100441.83;250928;1109;115980;-65
2021/03/20 00:43:05;;;;;;;13.43;5.00;;;;;;;-3.72;71.84;100444.43;252831;1108;116041;-66
2021/03/20 00:48:16;;;;;;;12.53;4.85;;;;;;;-3.82;73.46;100452.98;251252;1108;115062;-63
2021/03/20 00:53:21;;;;;;;8.40;4.47;;;;;;;-3.83;73.09;100446.13;252589;1108;115067;-65
2021/03/20 00:58:28;;;;;;;11.22;5.62;;;;;;;-3.83;72.49;100448.73;253565;1108;115689;-64
2021/03/20 01:03:32;;;;;;;11.63;5.00;;;;;;;-3.77;71.82;100447.41;253405;1107;114793;-63
2021/03/20 01:08:37;;;;;;;13.88;6.12;;;;;;;-3.81;73.20;100449.44;253453;1108;115832;-63
2021/03/20 01:13:42;;;;;;;15.30;6.08;;;;;;;-3.85;74.16;100444.59;252234;1109;115948;-63
2021/03/20 01:18:46;;;;;;;11.40;4.33;;;;;;;-3.93;75.63;100453.02;254030;1108;116274;-65
2021/03/20 01:23:50;;;;;;;10.10;4.72;;;;;;;-4.00;74.34;100446.69;254098;1108;114951;-62
2021/03/20 01:28:53;;;;;;;13.90;5.60;;;;;;;-3.94;75.72;100448.77;253181;1108;116341;-63
2021/03/20 01:33:58;;;;;;;10.50;4.87;;;;;;;-3.96;74.31;100453.27;253552;1108;115709;-62
2021/03/20 01:39:03;;;;;;;8.73;4.47;;;;;;;-3.95;75.65;100454.92;252297;1108;116058;-62
2021/03/20 01:44:06;;;;;;;15.28;5.47;;;;;;;-3.98;75.74;100454.37;251502;1109;114898;-64
2021/03/20 01:49:35;;;;;;;10.03;4.55;;;;;;;-3.98;73.96;100463.02;252929;1107;138283;-63
2021/03/20 01:55:05;;;;;;;10.13;3.90;;;;;;;-4.09;75.82;100463.04;251871;1109;115533;-64
2021/03/20 02:00:10;;;;;;;;;;;;;;;-4.12;76.32;100468.48;252236;1109;115306;-62
2021/03/20 02:05:21;;;;;;;8.13;4.42;;;;;;;-4.14;75.01;100467.78;252684;1108;104210;-63
2021/03/20 02:10:28;;;;;;;9.18;5.72;;;;;;;-4.16;75.61;100475.72;252062;1108;116111;-63
2021/03/20 02:15:41;;;;;;;12.07;6.07;;;;;;;-4.21;76.96;100479.62;251070;1108;117834;-63
2021/03/20 02:20:45;;;;;;;8.90;4.60;;;;;;;-4.25;75.27;100480.81;251640;1109;116303;-62
2021/03/20 02:26:10;;;;;;;18.48;6.90;;;;;;;-4.29;76.84;100487.23;251987;1108;117137;-62
2021/03/20 02:31:41;;;;;;;8.00;3.98;;;;;;;-4.32;75.68;100483.09;251211;1109;118763;-65
2021/03/20 02:36:56;;;;;;;10.23;5.12;;;;;;;-4.35;76.56;100491.14;251268;1109;117093;-65
2021/03/20 02:42:14;;;;;;;6.85;4.10;;;;;;;-4.38;78.57;100499.19;251716;1108;115911;-69
2021/03/20 02:47:30;;;;;;;10.60;5.70;;;;;;;-4.41;77.92;100502.03;251718;1109;114802;-67
2021/03/20 02:52:55;;;;;;;8.25;4.22;;;;;;;-4.45;77.61;100498.84;252840;1107;115877;-66
2021/03/20 02:57:58;;;;;;;9.63;5.30;;;;;;;-4.44;77.26;100505.70;252942;1108;115402;-66
2021/03/20 03:03:05;;;;;;;9.00;4.65;;;;;;;-4.46;77.35;100507.59;252284;1108;115783;-66
2021/03/20 03:08:19;;;;;;;9.23;5.90;;;;;;;-4.44;77.91;100504.87;252291;1108;115909;-66
2021/03/20 03:13:38;;;;;;;11.78;7.05;;;;;;;-4.44;78.85;100512.68;253761;1108;115226;-63
2021/03/20 03:18:51;;;;;;;13.62;4.50;;;;;;;-4.39;77.19;100512.33;253443;1108;115190;-63
2021/03/20 03:23:55;;;;;;;9.73;5.67;;;;;;;-4.33;77.43;100519.66;253978;1107;114940;-64
2021/03/20 03:29:08;;;;;;;9.80;4.53;;;;;;;-4.32;76.94;100516.11;252913;1108;115104;-64
2021/03/20 03:34:24;;;;;;;9.18;4.75;;;;;;;-4.33;78.11;100517.88;253907;1108;114718;-64
2021/03/20 03:39:51;;;;;;;5.15;3.95;;;;;;;-4.30;77.40;100530.66;253646;1108;115705;-64
2021/03/20 03:44:56;;;;;;;9.95;5.62;;;;;;;-4.31;76.67;100521.19;253052;1109;116331;-61
2021/03/20 03:50:07;;;;;;;15.43;8.53;;;;;;;-4.32;76.74;100534.33;251972;1109;114951;-65
2021/03/20 03:55:10;;;;;;;12.70;6.33;;;;;;;-4.33;76.56;100533.50;252346;1108;115635;-63
2021/03/20 04:00:34;;;;;;;10.18;5.05;;;;;;;-4.42;75.83;100537.64;252589;1109;136192;-62
2021/03/20 04:05:58;;;;;;;11.70;5.78;;;;;;;-4.46;77.87;100546.63;252733;1108;114970;-61
2021/03/20 04:11:17;;;;;;;13.90;6.65;;;;;;;-4.47;77.16;100552.78;252087;1108;119354;-61
2021/03/20 04:16:25;;;;;;;10.43;6.35;;;;;;;-4.46;76.32;100548.40;251283;1109;115239;-61
2021/03/20 04:22:11;;;;;;;12.17;5.97;;;;;;;-4.48;77.99;100552.89;252470;1108;115079;-63
2021/03/20 04:27:23;;;;;;;9.65;5.28;;;;;;;-4.51;76.10;100558.33;251909;1108;116345;-63
2021/03/20 04:32:46;;;;;;;9.30;5.00;;;;;;;-4.56;77.37;100558.68;251294;1109;116133;-64
2021/03/20 04:37:54;;;;;;;11.68;4.58;;;;;;;-4.60;77.17;100562.48;252433;1108;115451;-63
2021/03/20 04:42:58;;;;;;;9.85;5.45;;;;;;;-4.61;77.51;100563.43;252518;1108;115289;-63
2021/03/20 04:48:07;;;;;;;11.05;6.30;;;;;;;-4.60;76.96;100574.67;252033;1108;115382;-61
2021/03/20 04:53:14;;;;;;;18.50;7.05;;;;;;;-4.63;76.55;100573.13;251497;1108;116060;-63
2021/03/20 04:58:46;;;;;;;13.72;6.15;;;;;;;-4.60;75.10;100572.06;252098;1108;115769;-63
2021/03/20 05:04:02;;;;;;;13.70;7.28;;;;;;;-4.57;77.66;100583.04;252757;1107;115236;-62
2021/03/20 05:09:07;;;;;;;20.80;9.43;;;;;;;-4.53;76.10;100578.44;251864;1108;115939;-63
2021/03/20 05:14:11;;;;;;;8.73;5.85;;;;;;;-4.48;77.38;100584.12;251701;1108;115790;-63
2021/03/20 05:19:15;;;;;;;14.03;7.05;;;;;;;-4.41;78.11;100591.34;253012;1108;114631;-63
2021/03/20 05:24:36;;;;;;;15.53;7.27;;;;;;;-4.30;76.68;100597.51;252057;1109;117472;-63
2021/03/20 05:29:39;;;;;;;15.43;10.03;;;;;;;-4.18;77.27;100596.54;252709;1109;115761;-64
2021/03/20 05:34:44;;;;;;;12.10;6.03;;;;;;;-4.10;77.11;100596.78;254027;1107;115427;-63
2021/03/20 05:39:49;;;;;;;12.25;6.33;;;;;;;-4.02;76.54;100602.22;253061;1108;115135;-63
2021/03/20 05:45:14;;;;;;;11.95;4.75;;;;;;;-3.86;76.73;100607.87;253225;1108;115520;-62
2021/03/20 05:50:37;;;;;;;13.83;4.62;;;;;;;-3.74;76.90;100609.52;254018;1107;115018;-62
2021/03/20 05:55:54;;;;;;;8.87;4.60;;;;;;;-3.71;74.94;100607.62;252819;1108;115035;-61
2021/03/20 06:01:03;;;;;;;;;;;;;;;-3.75;77.35;100612.23;253045;1108;116054;-61
2021/03/20 06:06:29;;;;;;;13.08;5.65;;;;;;;-3.50;76.26;100616.31;253998;1108;103239;-63
2021/03/20 06:11:54;;;;;;;6.40;5.05;;;;;;;-3.29;75.44;100622.40;252294;1108;115656;-61
2021/03/20 06:17:07;;;;;;;14.10;7.70;;;;;;;-3.05;74.29;100627.39;253026;1108;115787;-62
2021/03/20 06:22:36;;;;;;;12.75;6.70;;;;;;;-3.05;73.75;100625.61;252768;1107;115827;-62
2021/03/20 06:27:47;;;;;;;15.47;5.43;;;;;;;-2.82;72.57;100623.73;251184;1109;116440;-62
2021/03/20 06:32:52;;;;;;;11.73;6.90;;;;;;;-2.68;73.44;100632.18;251534;1108;115955;-61
2021/03/20 06:37:59;;;;;;;11.25;7.70;;;;;;;-2.48;71.82;100636.58;251832;1108;115087;-61
2021/03/20 06:43:03;;;;;;;16.10;9.30;;;;;;;-2.24;71.74;100634.50;251603;1108;116024;-63
2021/03/20 06:48:15;;;;;;;12.90;7.57;;;;;;;-1.98;70.60;100644.50;252309;1107;115042;-61
2021/03/20 06:53:36;;;;;;;9.23;6.15;;;;;;;-1.80;68.68;100642.91;251945;1108;115359;-63
2021/03/20 06:58:41;;;;;;;12.70;7.10;;;;;;;-1.62;68.62;100645.72;251254;1109;115281;-63
2021/03/20 07:04:16;;;;;;;11.43;7.60;;;;;;;-1.25;67.16;100648.54;251278;1109;115938;-62
2021/03/20 07:09:19;;;;;;;13.68;6.50;;;;;;;-1.00;64.16;100642.76;252638;1109;115054;-65
2021/03/20 07:14:44;;;;;;;11.95;6.50;;;;;;;-0.78;65.61;100647.70;251339;1109;115612;-65
2021/03/20 07:20:13;;;;;;;10.18;5.80;;;;;;;-0.21;64.31;100651.16;252385;1109;115915;-61
2021/03/20 07:25:19;;;;;;;;;;;;;;;0.33;61.30;100660.84;253509;1108;115637;-65
2021/03/20 07:30:47;;;;;;;10.72;6.90;;;;;;;0.31;61.18;100660.17;254411;1108;104399;-65
2021/03/20 07:35:53;;;;;;;7.42;6.20;;;;;;;0.04;59.29;100673.27;253488;1108;115581;-66
2021/03/20 07:41:15;;;;;;;7.78;5.78;;;;;;;-0.31;60.83;100670.51;252702;1108;115941;-67
2021/03/20 07:46:19;;;;;;;9.98;6.35;;;;;;;-0.36;62.40;100684.85;253779;1107;115637;-68
2021/03/20 07:51:22;;;;;;;11.68;9.35;;;;;;;-0.40;61.95;100677.41;253783;1108;115565;-67
2021/03/20 07:56:32;;;;;;;11.25;8.15;;;;;;;-0.47;61.44;100687.62;253502;1108;116033;-66
2021/03/20 08:01:38;;;;;;;12.93;10.00;;;;;;;-0.74;62.24;100695.37;253364;1108;114995;-66
2021/03/20 08:06:44;;;;;;;10.60;6.77;;;;;;;-0.69;61.71;100693.99;253601;1107;115209;-65
2021/03/20 08:12:11;;;;;;;6.45;5.78;;;;;;;-0.95;62.79;100694.69;252643;1107;116770;-67
2021/03/20 08:17:34;;;;;;;10.78;6.67;;;;;;;-0.78;64.50;100700.05;253712;1108;115858;-67
2021/03/20 08:22:44;;;;;;;8.45;6.70;;;;;;;-0.69;63.65;100698.41;251992;1108;115377;-66
2021/03/20 08:28:10;;;;;;;9.05;5.50;;;;;;;-0.39;61.13;100706.09;252214;1107;115515;-65
2021/03/20 08:33:22;;;;;;;8.80;4.70;;;;;;;-0.22;58.74;100706.31;252010;1108;115903;-64
2021/03/20 08:38:52;;;;;;;6.25;4.85;;;;;;;-0.24;57.07;100711.70;252104;1108;114633;-66
2021/03/20 08:44:38;;;;;;;11.03;6.97;;;;;;;-0.10;58.11;100716.50;252443;1108;115640;-64
2021/03/20 08:50:19;;;;;;;3.20;2.60;;;;;;;-0.01;57.20;100706.97;251978;1109;196708;-66
2021/03/20 08:55:51;;;;;;;2.22;2.02;;;;;;;0.45;53.72;100713.12;251508;1108;116335;-68
2021/03/20 09:01:15;;;;;;;2.98;2.10;;;;;;;0.74;50.87;100711.16;251527;1109;116620;-66
2021/03/20 09:06:28;;;;;;;5.57;3.73;;;;;;;0.73;52.27;100711.31;251173;1109;115023;-66
2021/03/20 09:11:57;;;;;;;4.72;2.77;;;;;;;0.57;50.69;100717.22;251893;1109;114995;-69
2021/03/20 09:17:32;;;;;;;6.08;4.37;;;;;;;0.64;52.82;100726.13;252989;1109;114852;-64
2021/03/20 09:22:46;;;;;;;7.67;3.62;;;;;;;0.49;50.80;100717.94;252748;1109;115485;-65
2021/03/20 09:28:15;;;;;;;5.90;3.08;;;;;;;0.64;51.68;100718.26;252600;1109;116653;-66
2021/03/20 09:33:27;;;;;;;7.40;5.65;;;;;;;1.19;49.58;100729.53;251405;1108;116388;-65
2021/03/20 09:38:35;;;;;;;5.25;3.72;;;;;;;0.96;49.03;100736.16;251965;1108;115811;-65
2021/03/20 09:43:48;;;;;;;4.60;3.80;;;;;;;0.78;51.41;100738.77;251659;1109;118046;-66
2021/03/20 09:48:51;;;;;;;5.53;4.07;;;;;;;0.76;50.74;100740.72;253369;1108;115444;-66
2021/03/20 09:53:55;;;;;;;4.42;3.45;;;;;;;0.79;51.40;100745.67;253933;1108;115348;-67
2021/03/20 09:58:58;;;;;;;2.12;1.77;;;;;;;0.76;46.62;100748.59;254032;1107;115182;-66
2021/03/20 10:04:01;;;;;;;3.15;2.35;;;;;;;0.84;46.01;100745.23;253854;1107;115388;-64
2021/03/20 10:09:17;;;;;;;0.88;0.88;;;;;;;1.29;41.75;100746.02;254271;1108;115563;-66
2021/03/20 10:14:27;;;;;;;2.35;1.35;;;;;;;1.83;43.75;100748.61;253993;1109;115034;-66
2021/03/20 10:19:46;;;;;;;1.05;1.05;;;;;;;1.52;40.93;100743.78;253408;1108;116091;-67
2021/03/20 10:24:51;;;;;;;1.47;1.37;;;;;;;1.02;42.53;100740.83;252656;1107;115379;-66
2021/03/20 10:30:11;;;;;;;4.97;2.98;;;;;;;0.93;43.64;100753.03;252328;1108;116316;-67
2021/03/20 10:35:15;;;;;;;3.37;3.07;;;;;;;0.92;46.47;100754.00;251583;1108;115772;-65
2021/03/20 10:40:27;;;;;;;6.97;2.50;;;;;;;0.98;46.62;100760.47;251656;1109;115323;-65
2021/03/20 10:45:36;;;;;;;6.85;3.50;;;;;;;0.81;48.12;100751.60;252515;1108;115417;-65
2021/03/20 10:50:45;;;;;;;2.22;2.12;;;;;;;0.58;48.33;100750.36;251446;1109;118449;-64
2021/03/20 10:55:59;;;;;;;4.37;1.55;;;;;;;0.62;43.48;100749.89;251189;1109;115684;-67
2021/03/20 11:01:04;;;;;;;4.60;2.33;;;;;;;1.03;43.17;100752.16;251647;1108;114964;-64
2021/03/20 11:06:17;;;;;;;1.57;1.30;;;;;;;0.74;43.69;100736.58;251793;1109;114647;-65
2021/03/20 11:11:28;;;;;;;5.05;2.90;;;;;;;0.94;45.29;100738.94;251040;1108;116662;-65
2021/03/20 11:16:47;;;;;;;1.60;1.10;;;;;;;0.81;42.61;100743.73;252258;1108;115565;-66
2021/03/20 11:21:59;;;;;;;1.75;1.60;;;;;;;0.85;44.88;100734.59;251163;1109;115145;-65
2021/03/20 11:27:25;;;;;;;2.25;2.00;;;;;;;1.05;46.77;100737.91;252553;1108;114673;-65
2021/03/20 11:32:35;;;;;;;4.12;2.20;;;;;;;0.97;46.22;100725.52;252292;1108;115768;-66
2021/03/20 11:37:44;;;;;;;6.03;2.65;;;;;;;1.00;44.92;100719.97;251896;1108;117711;-65
2021/03/20 11:42:53;;;;;;;4.28;2.10;;;;;;;1.18;43.57;100712.11;253178;1107;115244;-66
2021/03/20 11:48:00;;;;;;;3.87;2.35;;;;;;;1.20;43.31;100707.54;252244;1108;114776;-65
2021/03/20 11:53:24;;;;;;;;;;;;;;;1.05;43.54;100709.02;253502;1107;114659;-65
2021/03/20 11:58:33;;;;;;;2.55;2.25;;;;;;;1.08;42.19;100695.59;254495;1107;102649;-65
2021/03/20 12:03:38;;;;;;;15.15;3.20;;;;;;;1.04;42.56;100701.30;254089;1108;115368;-64
2021/03/20 12:09:23;;;;;;;4.90;3.08;;;;;;;1.03;41.80;100699.64;253023;1108;115584;-65
2021/03/20 12:14:48;;;;;;;8.00;2.65;;;;;;;0.96;46.67;100694.98;253610;1108;115524;-65
2021/03/20 12:19:50;;;;;;;4.07;2.10;;;;;;;0.96;46.49;100697.61;253343;1107;115552;-65
2021/03/20 12:25:19;;;;;;;1.77;1.35;;;;;;;0.91;44.94;100686.76;252692;1108;115157;-66
2021/03/20 12:30:31;;;;;;;3.25;1.72;;;;;;;1.01;42.74;100689.29;252326;1108;116138;-66
2021/03/20 12:35:39;;;;;;;1.30;1.20;;;;;;;1.01;40.90;100681.41;251398;1109;115794;-64
2021/03/20 12:40:57;;;;;;;3.15;1.95;;;;;;;1.09;39.51;100683.30;252567;1108;114840;-64
2021/03/20 12:46:05;;;;;;;3.65;2.75;;;;;;;1.18;40.13;100669.27;252111;1108;115223;-66
2021/03/20 12:51:18;;;;;;;4.12;2.85;;;;;;;1.77;42.05;100676.44;252066;1108;118332;-65
2021/03/20 12:56:22;;;;;;;4.83;2.60;;;;;;;1.91;39.30;100675.85;251754;1109;115568;-65
2021/03/20 13:01:26;;;;;;;3.72;2.35;;;;;;;1.77;43.25;100672.98;252102;1108;116469;-66
2021/03/20 13:06:31;;;;;;;7.70;3.77;;;;;;;1.61;44.41;100685.03;251527;1107;115228;-65
2021/03/20 13:11:35;;;;;;;5.03;3.80;;;;;;;1.38;43.79;100670.73;251824;1108;114982;-65
2021/03/20 13:16:39;;;;;;;9.40;3.62;;;;;;;1.28;46.37;100672.62;251956;1108;115821;-66
2021/03/20 13:21:42;;;;;;;10.93;4.33;;;;;;;1.38;44.05;100667.29;252100;1107;114648;-64
2021/03/20 13:26:47;;;;;;;3.50;1.97;;;;;;;1.50;44.71;100658.19;251728;1108;115159;-65
2021/03/20 13:31:55;;;;;;;3.00;2.25;;;;;;;1.34;44.92;100666.77;252206;1107;114926;-64
2021/03/20 13:36:59;;;;;;;7.85;4.25;;;;;;;1.23;45.92;100649.43;252416;1107;115210;-65
2021/03/20 13:42:03;;;;;;;4.97;3.90;;;;;;;1.16;46.20;100655.47;251017;1108;114691;-64
2021/03/20 13:47:07;;;;;;;4.08;2.90;;;;;;;1.06;44.92;100647.66;253209;1108;115383;-65
2021/03/20 13:52:12;;;;;;;3.73;3.37;;;;;;;0.88;45.94;100647.68;253839;1108;115734;-65
2021/03/20 13:57:16;;;;;;;3.05;2.00;;;;;;;0.75;47.09;100644.59;254268;1108;114672;-65
2021/03/20 14:02:20;;;;;;;5.78;4.72;;;;;;;0.77;49.24;100642.64;254363;1108;118285;-66
2021/03/20 14:07:26;;;;;;;7.67;3.27;;;;;;;0.58;46.18;100643.61;253720;1108;116451;-65
2021/03/20 14:12:29;;;;;;;8.85;3.08;;;;;;;0.63;47.94;100645.76;254296;1108;114812;-65
2021/03/20 14:17:31;;;;;;;4.65;2.55;;;;;;;0.67;45.54;100645.32;254040;1108;115382;-65
2021/03/20 14:22:34;;;;;;;2.33;2.08;;;;;;;0.85;46.61;100647.97;253820;1108;115252;-65
2021/03/20 14:27:37;;;;;;;4.83;3.00;;;;;;;0.94;42.64;100633.92;252355;1108;114804;-67
2021/03/20 14:32:41;;;;;;;2.67;2.17;;;;;;;0.95;44.70;100619.83;253437;1108;114952;-65
2021/03/20 14:37:46;;;;;;;10.78;7.72;;;;;;;0.79;48.04;100622.32;251746;1109;116124;-65
2021/03/20 14:42:50;;;;;;;7.83;4.33;;;;;;;0.66;49.79;100620.05;252404;1108;116000;-65
2021/03/20 14:47:53;;;;;;;3.87;3.50;;;;;;;0.53;49.80;100613.54;252405;1108;117399;-64
2021/03/20 14:53:00;;;;;;;8.87;4.17;;;;;;;0.51;51.54;100611.06;251759;1108;116216;-65
2021/03/20 14:58:04;;;;;;;10.57;4.97;;;;;;;0.36;50.00;100611.70;251240;1109;116778;-65
2021/03/20 15:03:10;;;;;;;4.70;3.87;;;;;;;0.30;49.25;100603.48;251256;1109;117210;-65
2021/03/20 15:08:19;;;;;;;5.60;3.25;;;;;;;0.28;49.46;100589.69;251951;1108;116978;-67
2021/03/20 15:13:24;;;;;;;3.62;2.12;;;;;;;0.11;48.98;100593.08;251853;1108;116658;-67
2021/03/20 15:18:34;;;;;;;7.90;4.40;;;;;;;0.17;50.64;100582.02;252414;1108;115213;-65
2021/03/20 15:23:41;;;;;;;9.00;4.87;;;;;;;0.15;48.96;100589.20;251407;1108;115975;-67
2021/03/20 15:28:50;;;;;;;11.97;4.67;;;;;;;0.09;51.16;100584.53;252152;1107;115172;-65
2021/03/20 15:33:54;;;;;;;9.18;3.58;;;;;;;0.06;51.62;100590.06;253233;1108;115871;-66
2021/03/20 15:38:59;;;;;;;6.83;4.03;;;;;;;-0.01;51.17;100581.16;251870;1108;115900;-65
2021/03/20 15:44:02;;;;;;;8.30;5.00;;;;;;;0.03;52.78;100576.42;251480;1108;116547;-65
2021/03/20 15:49:06;;;;;;;7.65;4.05;;;;;;;0.02;51.46;100566.91;251080;1109;116748;-63
2021/03/20 15:54:09;;;;;;;9.50;3.80;;;;;;;-0.22;51.40;100570.06;252099;1108;115579;-63
2021/03/20 15:59:13;;;;;;;7.20;4.65;;;;;;;-0.37;52.36;100567.11;252804;1108;114974;-65
2021/03/20 16:04:17;;;;;;;6.33;3.83;;;;;;;-0.49;54.18;100563.02;253121;1108;115606;-64
2021/03/20 16:09:20;;;;;;;10.23;4.78;;;;;;;-0.59;53.12;100562.20;253847;1107;116063;-66
2021/03/20 16:14:23;;;;;;;8.18;4.85;;;;;;;-0.57;53.62;100553.24;253907;1108;115471;-66
2021/03/20 16:19:27;;;;;;;6.70;4.50;;;;;;;-0.51;53.42;100550.06;253477;1108;115464;-66
2021/03/20 16:24:29;;;;;;;6.95;5.12;;;;;;;-0.64;54.15;100544.33;253324;1108;115015;-65
2021/03/20 16:29:33;;;;;;;8.77;4.50;;;;;;;-0.66;54.21;100546.27;253609;1108;115128;-65
2021/03/20 16:34:37;;;;;;;8.68;4.17;;;;;;;-0.75;53.67;100549.73;251228;1107;114931;-64
2021/03/20 16:39:40;;;;;;;12.35;6.35;;;;;;;-0.80;55.01;100541.47;252930;1107;115244;-65
2021/03/20 16:45:00;;;;;;;16.80;6.30;;;;;;;-0.84;56.02;100538.31;251753;1109;115884;-66
2021/03/20 16:50:04;;;;;;;11.30;5.95;;;;;;;-0.99;54.30;100534.50;252317;1109;116014;-65
2021/03/20 16:55:10;;;;;;;10.08;4.22;;;;;;;-1.13;54.36;100530.52;252304;1108;115262;-65
2021/03/20 17:00:31;;;;;;;11.03;5.00;;;;;;;-1.24;55.02;100524.63;251934;1108;115136;-64
2021/03/20 17:05:40;;;;;;;8.38;5.97;;;;;;;-1.32;56.19;100525.31;251372;1108;115986;-65
2021/03/20 17:10:44;;;;;;;9.38;5.20;;;;;;;-1.39;55.98;100526.83;251888;1108;115670;-65
2021/03/20 17:15:49;;;;;;;11.63;5.30;;;;;;;-1.51;56.78;100520.08;251136;1109;116053;-61
2021/03/20 17:20:55;;;;;;;20.08;6.53;;;;;;;-1.59;58.06;100514.73;251128;1109;116496;-62
2021/03/20 17:25:58;;;;;;;9.30;5.72;;;;;;;-1.66;57.61;100504.00;252324;1108;115280;-63
2021/03/20 17:31:06;;;;;;;15.50;5.77;;;;;;;-1.65;58.87;100510.05;251096;1109;115596;-63
2021/03/20 17:36:11;;;;;;;9.57;6.13;;;;;;;-1.73;59.38;100492.43;251168;1108;116179;-61
2021/03/20 17:41:15;;;;;;;15.00;7.95;;;;;;;-1.82;60.33;100490.63;252609;1107;115302;-62
2021/03/20 17:46:23;;;;;;;12.80;8.20;;;;;;;-1.88;59.98;100488.59;251578;1108;116094;-62
2021/03/20 17:51:26;;;;;;;12.58;6.85;;;;;;;-1.95;61.20;100483.07;252992;1107;115223;-61
2021/03/20 17:56:28;;;;;;;12.10;8.90;;;;;;;-2.01;61.25;100482.78;252073;1107;115257;-62
2021/03/20 18:01:31;;;;;;;15.78;9.93;;;;;;;-2.06;61.33;100483.19;252817;1107;115517;-64
2021/03/20 18:06:34;;;;;;;11.78;7.60;;;;;;;-2.11;61.59;100482.77;253579;1107;114925;-64
2021/03/20 18:11:37;;;;;;;17.90;10.72;;;;;;;-2.09;61.88;100465.99;253458;1108;115171;-65
2021/03/20 18:16:40;;;;;;;18.47;10.13;;;;;;;-2.13;61.77;100463.78;253799;1108;115294;-64
2021/03/20 18:21:43;;;;;;;19.23;9.88;;;;;;;-2.15;62.57;100463.95;253518;1107;115353;-65
2021/03/20 18:26:45;;;;;;;11.08;8.98;;;;;;;-2.15;62.44;100453.50;253364;1107;115122;-65
2021/03/20 18:31:48;;;;;;;17.87;9.55;;;;;;;-2.18;62.98;100456.38;252893;1107;115664;-64
2021/03/20 18:36:51;;;;;;;16.32;11.70;;;;;;;-2.24;63.51;100456.09;252348;1108;115259;-64
2021/03/20 18:41:55;;;;;;;13.22;9.05;;;;;;;-2.27;64.77;100457.18;252154;1108;115235;-64
2021/03/20 18:46:59;;;;;;;23.42;9.90;;;;;;;-2.32;64.09;100446.31;252223;1108;115036;-65
2021/03/20 18:52:02;;;;;;;20.75;11.05;;;;;;;-2.32;63.60;100437.65;252074;1108;115061;-61
2021/03/20 18:57:06;;;;;;;20.40;10.33;;;;;;;-2.35;63.81;100430.91;252135;1108;115195;-61
2021/03/20 19:02:10;;;;;;;15.60;11.45;;;;;;;-2.32;64.18;100437.65;251906;1108;115268;-62
2021/03/20 19:07:14;;;;;;;30.72;14.05;;;;;;;-2.35;63.86;100422.25;251443;1107;115636;-62
2021/03/20 19:12:18;;;;;;;22.30;11.70;;;;;;;-2.46;64.40;100431.87;251418;1108;116208;-61
2021/03/20 19:17:22;;;;;;;24.92;12.60;;;;;;;-2.52;66.51;100424.56;252184;1108;115974;-61
2021/03/20 19:22:25;;;;;;;30.32;13.50;;;;;;;-2.52;65.12;100426.35;252084;1109;115428;-62
2021/03/20 19:27:28;;;;;;;21.12;11.73;;;;;;;-2.59;65.04;100420.83;251549;1108;117501;-61
2021/03/20 19:32:31;;;;;;;26.35;12.05;;;;;;;-2.61;65.42;100420.14;251275;1108;115564;-61
2021/03/20 19:37:35;;;;;;;26.23;14.47;;;;;;;-2.64;65.37;100423.02;252540;1107;117548;-62
2021/03/20 19:42:39;;;;;;;28.30;11.88;;;;;;;-2.71;65.33;100412.27;252773;1108;116373;-62
2021/03/20 19:47:43;;;;;;;31.95;13.58;;;;;;;-2.73;66.23;100402.92;252508;1108;115479;-61
2021/03/20 19:52:47;;;;;;;35.80;14.95;;;;;;;-2.78;65.13;100397.30;251168;1109;117460;-60
2021/03/20 19:57:51;;;;;;;31.17;15.23;;;;;;;-2.81;65.88;100400.17;253122;1108;115910;-61
2021/03/20 20:02:55;;;;;;;30.45;16.30;;;;;;;-2.84;66.03;100401.27;252939;1108;115907;-61
2021/03/20 20:08:00;;;;;;;28.77;13.30;;;;;;;-2.83;65.56;100391.66;252435;1108;117153;-61
2021/03/20 20:13:08;;;;;;;25.00;13.10;;;;;;;-2.80;66.13;100387.00;253160;1108;115895;-63
2021/03/20 20:18:16;;;;;;;;;;;;;;;-2.79;65.40;100383.43;253861;1108;115407;-61
2021/03/20 20:23:20;;;;;;;27.37;14.23;;;;;;;-2.77;65.03;100375.47;254526;1107;103061;-61
2021/03/20 20:28:27;;;;;;;23.77;12.93;;;;;;;-2.81;64.76;100374.09;254084;1108;116009;-64
2021/03/20 20:33:31;;;;;;;27.42;12.33;;;;;;;-2.89;65.66;100371.31;254255;1108;115649;-64
2021/03/20 20:38:38;;;;;;;29.30;11.15;;;;;;;-2.90;64.80;100367.05;253804;1108;115325;-64
2021/03/20 20:43:47;;;;;;;21.07;10.40;;;;;;;-2.88;65.63;100372.95;253371;1109;115335;-64
2021/03/20 20:48:52;;;;;;;21.23;11.43;;;;;;;-2.93;63.97;100362.09;252907;1108;116067;-64
2021/03/20 20:53:56;;;;;;;13.60;10.50;;;;;;;-2.96;64.60;100351.92;252030;1108;116704;-61
2021/03/20 20:58:59;;;;;;;20.55;10.60;;;;;;;-2.98;64.42;100346.02;253140;1108;116802;-62
2021/03/20 21:04:04;;;;;;;18.15;9.35;;;;;;;-2.96;64.44;100344.92;252407;1108;117571;-62
2021/03/20 21:09:08;;;;;;;24.53;10.77;;;;;;;-2.97;65.12;100339.84;252091;1109;116300;-63
2021/03/20 21:14:13;;;;;;;26.02;15.25;;;;;;;-2.97;65.37;100326.80;251905;1108;116506;-60
2021/03/20 21:19:18;;;;;;;23.12;10.82;;;;;;;-2.96;64.52;100318.84;252497;1108;116034;-59
2021/03/20 21:24:21;;;;;;;24.00;10.70;;;;;;;-2.90;63.92;100313.09;251208;1108;117670;-59
2021/03/20 21:29:25;;;;;;;20.73;9.27;;;;;;;-2.82;66.01;100313.25;252101;1109;117711;-60
2021/03/20 21:34:29;;;;;;;20.45;10.10;;;;;;;-2.80;64.36;100300.07;252229;1107;116517;-64
2021/03/20 21:39:33;;;;;;;15.30;8.60;;;;;;;-2.78;65.34;100298.16;251999;1108;116482;-60
2021/03/20 21:44:39;;;;;;;17.25;9.45;;;;;;;-2.80;64.33;100287.85;251640;1108;116325;-62
2021/03/20 21:49:44;;;;;;;10.07;5.83;;;;;;;-2.78;64.67;100279.89;251929;1108;115821;-64
2021/03/20 21:54:48;;;;;;;18.62;8.83;;;;;;;-2.77;64.28;100284.98;251466;1109;118221;-59
2021/03/20 21:59:52;;;;;;;12.28;7.00;;;;;;;-2.73;64.02;100268.06;252459;1108;115970;-62
2021/03/20 22:04:55;;;;;;;14.70;8.40;;;;;;;-2.63;65.12;100262.86;251955;1108;117261;-61
2021/03/20 22:09:59;;;;;;;17.10;8.70;;;;;;;-2.56;65.82;100269.18;251848;1108;115786;-61
2021/03/20 22:15:04;;;;;;;18.98;9.73;;;;;;;-2.54;64.29;100269.88;252547;1108;115763;-62
2021/03/20 22:20:10;;;;;;;15.20;8.90;;;;;;;-2.50;64.10;100252.15;253508;1107;115639;-62
2021/03/20 22:25:15;;;;;;;18.48;9.48;;;;;;;-2.45;64.73;100234.29;252839;1107;117840;-62
2021/03/20 22:30:23;;;;;;;17.73;9.85;;;;;;;-2.44;63.85;100228.08;252354;1108;116632;-62
2021/03/20 22:35:26;;;;;;;19.42;10.00;;;;;;;-2.46;63.57;100223.02;254063;1107;117561;-61
2021/03/20 22:40:32;;;;;;;18.02;10.53;;;;;;;-2.42;63.89;100213.92;253691;1107;117589;-64
2021/03/20 22:45:36;;;;;;;11.18;5.33;;;;;;;-2.50;63.80;100205.98;253522;1108;117001;-64
2021/03/20 22:50:43;;;;;;;;;;;;;;;-2.46;62.67;100209.97;252974;1108;117344;-60
2021/03/20 22:55:46;;;;;;;26.10;11.57;;;;;;;-2.41;64.44;100189.47;254128;1107;104093;-60
2021/03/20 23:00:54;;;;;;;18.12;10.30;;;;;;;-2.39;63.62;100182.31;252252;1107;117674;-61
2021/03/20 23:05:59;;;;;;;19.55;9.63;;;;;;;-2.39;64.35;100176.27;252211;1108;116849;-61
2021/03/20 23:11:06;;;;;;;23.85;15.55;;;;;;;-2.37;63.96;100156.89;252667;1108;114955;-60
2021/03/20 23:16:17;;;;;;;23.55;12.95;;;;;;;-2.36;64.28;100147.28;251120;1108;115751;-63
2021/03/20 23:21:22;;;;;;;16.67;10.78;;;;;;;-2.34;64.87;100149.75;252236;1107;115830;-62